AirNav   Everest Fuels
 
 855 users online  

7AL7 Pratt Landing Airport
Madrid, Alabama, USA

GOING TO MADRID?


FAA INFORMATION EFFECTIVE 03 JANUARY 2019

Location

FAA Identifier: 7AL7
Lat/Long: 31-03-52.2000N / 085-26-21.8000W
31-03.870000N / 085-26.363333W
31.0645000 / -85.4393889
(estimated)
Elevation: 184 ft. / 56 m
From city: 4 miles SE of MADRID, AL
Time zone: UTC -6 (UTC -5 during Daylight Saving Time)
Zip code: 36370

Airport Operations

Airport use: Private use. Permission required prior to landing
Activation date: 01/2014
Control tower: no
ARTCC: JACKSONVILLE CENTER
FSS: ANNISTON FLIGHT SERVICE STATION
Attendance: IREG
Wind indicator: yes
Segmented circle: yes

Airport Communications

WX ASOS at DHN (15 nm N): PHONE 334-983-5999
WX ASOS at MAI (19 nm SE): 133.525 (850-482-6082)

Nearby radio navigation aids

VOR radial/distance  VOR name  Freq  Var
RRSr180/13.2WIREGRASS VORTAC111.6002E
OZRr133/19.2CAIRNS VOR/DME111.2003W
HEYr152/(21.6)HANCHEY VOR110.6003W
MAIr316/23.3MARIANNA VORTAC114.0000E
EDNr123/(27.6)ENTERPRISE VOR116.6003W

 
NDB name  Hdg/Dist  Freq  Var  ID
SOYYA318/16.032902WSMY ... -- -.--
HANCHEY153/21.722103WHYE .... -.-- .
LOWE142/23.726903WLOR .-.. --- .-.
BOLL WEEVIL124/32.435203WBVG -... ...- --.
BLAAK237/39.534403WIWJ .. .-- .---

Airport Services

Runway Information

Runway 9/27

Dimensions: 2382 x 90 ft. / 726 x 27 m
Surface: turf
RUNWAY GOOD CONDITION AND SMOOTH
RUNWAY 9  RUNWAY 27
Traffic pattern: leftleft
Displaced threshold: no427 ft.
Obstructions: nonebldg
26 FT HANGAR 125 FT FROM RWY 27 END.

Airport Ownership and Management from official FAA records

Ownership: Privately-owned
Owner: CLAUDE PRATT
9042 SOUTH STATE HWY 605
SLOCOMB, AL 36375
Phone 352-598-3678
Manager: CLAUDE PRATT
9042 SOUTH STATE HWY 605
SLOCOMB, AL 36375
Phone 352-598-3678

Airport Operational Statistics

Aircraft based on the field: 5
Single engine airplanes: 5
    

Instrument Procedures

There are no published instrument procedures at 7AL7.

Some nearby airports with instrument procedures:

KDHN - Dothan Regional Airport (15 nm N)
1J0 - Tri-County Airport (16 nm SW)
KOZR - Cairns Army Airfield (Fort Rucker) (19 nm NW)
KMAI - Marianna Municipal Airport (19 nm SE)
0J6 - Headland Municipal Airport (19 nm N)
 
Loc | Ops | Rwys | IFR | FBO | Links
Com | Nav | Svcs | Stats | Notes
Aerial photo
No photo
 
Airport distance calculator
Flying to Pratt Landing Airport? Find the distance to fly.

From to 7AL7

Sunrise and sunset
Times for 18-Jan-2019
 Local
(UTC-6)
 Zulu
(UTC)
Morning civil twilight06:1512:15
Sunrise06:4112:41
Sunset17:0323:03
Evening civil twilight17:3023:30

Current date and time
Zulu (UTC)  19-Jan-2019 03:15:43
Local (UTC-6)  18-Jan-2019 21:15:43
 
METAR
KDHN 
15nm N 
190253Z AUTO 21004KT 10SM CLR 14/12 A3007 RMK AO2 SLP178 T01440122 58005
KMAI 
19nm SE 
190253Z AUTO 20005KT 10SM CLR 15/14 A3004 RMK AO2 SLP171 T01500144 58002
KOZR 
19nm NW 
190256Z AUTO 15003KT 10SM FEW026 SCT180 14/13 A3003 RMK AO2 SLP171 T01440131 58005
KHEY 
20nm NW 
190258Z AUTO 00000KT 10SM SCT023 SCT190 BKN220 15/15 A3002 RMK AO2 LTG DSNT NW SLP167 T01460145 58005
KLOR 
23nm NW 
190258Z AUTO 00000KT 10SM OVC190 13/13 A3003 RMK AO2 LTG DSNT NW SLP152 T01310129 57005
KEDN 
28nm NW 
190255Z AUTO 16003KT 10SM SCT018 14/14 A3003 RMK AO2 LTG DSNT E T01430140
KSXS 
28nm NW 
190258Z AUTO 00000KT 10SM BKN190 BKN220 14/13 A3002 RMK AO2 LTG DSNT W SLP167 T01370132 58005
K17J 
29nm E 
190255Z AUTO 24004KT 10SM CLR 16/15 A3005 RMK AO2 LTG DSNT NW T01580145
TAF
KDHN 
15nm N 
181859Z 1819/1918 VRB05KT P6SM SCT025 OVC040 TEMPO 1819/1823 BKN025 FM182300 21009KT P6SM BKN025 FM190400 18005KT 4SM BR BKN010 OVC025 FM190700 18005KT 2SM BR OVC004 FM191500 18014KT P6SM VCSH OVC050
KOZR 
19nm NW 
190000Z 1900/2006 VRB06KT 9000 BR BKN020 QNH3001INS BECMG 1903/1904 VRB06KT 1600 BR BKN002 QNH2996INS BECMG 1914/1915 15012G18KT 9999 NSW SCT045 BKN150 520003 QNH2985INS BECMG 1917/1918 18015G25KT 6000 -SHRA BKN070 520003 QNH2975INS TEMPO 2000/2004 23030G40KT 2400 TSRA OVC015CB BECMG 2004/2005 30020G30KT 8000 -SHRA BKN010 510003 QNH2970INS TX22/1900Z TN15/1908Z LAST NO AMDS AFT 1907 NEXT 2207
NOTAMs
Click for the latest NOTAMs
NOTAMs are issued by the DoD/FAA and will open in a separate window not controlled by AirNav.

 

 
 

Would you like to see your business listed on this page?

 If your business provides an interesting product or service to pilots, flight crews, aircraft, or users of the Pratt Landing Airport, you should consider listing it here.  To start the listing process, click on the button below
 
Add a business
 

Other Pages about Pratt Landing Airport

Update a link
 
Copyright © AirNav, LLC. All rights reserved. Privacy Policy  Contact